sensor_id;sensor_type;location;lat;lon;timestamp;P1;durP1;ratioP1;P2;durP2;ratioP2
29432;SDS011;16405;53.964;13.448;2022-11-28T00:01:34;112.28;;;41.55;;
29432;SDS011;16405;53.964;13.448;2022-11-28T00:04:11;124.88;;;41.20;;
29432;SDS011;16405;53.964;13.448;2022-11-28T00:06:39;123.53;;;42.65;;
29432;SDS011;16405;53.964;13.448;2022-11-28T00:09:14;127.75;;;41.25;;
29432;SDS011;16405;53.964;13.448;2022-11-28T00:11:43;103.75;;;40.72;;
29432;SDS011;16405;53.964;13.448;2022-11-28T00:14:10;99.00;;;37.50;;
29432;SDS011;16405;53.964;13.448;2022-11-28T00:16:40;115.78;;;41.55;;
29432;SDS011;16405;53.964;13.448;2022-11-28T00:19:07;123.72;;;41.63;;
29432;SDS011;16405;53.964;13.448;2022-11-28T00:21:33;97.18;;;32.80;;
29432;SDS011;16405;53.964;13.448;2022-11-28T00:23:59;114.38;;;42.15;;
29432;SDS011;16405;53.964;13.448;2022-11-28T00:26:27;113.07;;;38.47;;
29432;SDS011;16405;53.964;13.448;2022-11-28T00:28:58;132.02;;;43.15;;
29432;SDS011;16405;53.964;13.448;2022-11-28T00:31:26;86.55;;;28.25;;
29432;SDS011;16405;53.964;13.448;2022-11-28T00:33:56;121.38;;;42.78;;
29432;SDS011;16405;53.964;13.448;2022-11-28T00:36:26;130.32;;;43.85;;
29432;SDS011;16405;53.964;13.448;2022-11-28T00:38:53;129.82;;;39.90;;
29432;SDS011;16405;53.964;13.448;2022-11-28T00:41:23;103.72;;;34.50;;
29432;SDS011;16405;53.964;13.448;2022-11-28T00:44:00;115.65;;;38.63;;
29432;SDS011;16405;53.964;13.448;2022-11-28T00:46:28;115.72;;;40.03;;
29432;SDS011;16405;53.964;13.448;2022-11-28T00:48:57;125.80;;;42.83;;
29432;SDS011;16405;53.964;13.448;2022-11-28T00:51:28;112.75;;;41.70;;
29432;SDS011;16405;53.964;13.448;2022-11-28T00:54:01;96.05;;;33.03;;
29432;SDS011;16405;53.964;13.448;2022-11-28T00:56:32;129.38;;;41.30;;
29432;SDS011;16405;53.964;13.448;2022-11-28T00:59:04;109.57;;;40.97;;
29432;SDS011;16405;53.964;13.448;2022-11-28T01:01:32;120.60;;;42.00;;
29432;SDS011;16405;53.964;13.448;2022-11-28T01:04:13;113.53;;;39.83;;
29432;SDS011;16405;53.964;13.448;2022-11-28T01:06:48;113.10;;;37.55;;
29432;SDS011;16405;53.964;13.448;2022-11-28T01:09:19;106.35;;;37.33;;
29432;SDS011;16405;53.964;13.448;2022-11-28T01:11:48;113.85;;;40.78;;
29432;SDS011;16405;53.964;13.448;2022-11-28T01:14:18;102.85;;;38.13;;
29432;SDS011;16405;53.964;13.448;2022-11-28T01:16:46;102.10;;;39.15;;
29432;SDS011;16405;53.964;13.448;2022-11-28T01:19:13;89.43;;;32.78;;
29432;SDS011;16405;53.964;13.448;2022-11-28T01:21:47;101.32;;;39.22;;
29432;SDS011;16405;53.964;13.448;2022-11-28T01:24:14;120.35;;;40.15;;
29432;SDS011;16405;53.964;13.448;2022-11-28T01:26:40;107.55;;;38.28;;
29432;SDS011;16405;53.964;13.448;2022-11-28T01:29:07;97.32;;;39.58;;
29432;SDS011;16405;53.964;13.448;2022-11-28T01:31:40;89.88;;;35.65;;
29432;SDS011;16405;53.964;13.448;2022-11-28T01:34:06;95.70;;;37.05;;
29432;SDS011;16405;53.964;13.448;2022-11-28T01:36:32;86.05;;;36.13;;
29432;SDS011;16405;53.964;13.448;2022-11-28T01:38:58;78.75;;;36.20;;
29432;SDS011;16405;53.964;13.448;2022-11-28T01:41:31;91.10;;;36.45;;
29432;SDS011;16405;53.964;13.448;2022-11-28T01:44:01;99.80;;;37.13;;
29432;SDS011;16405;53.964;13.448;2022-11-28T01:46:39;85.25;;;34.20;;
29432;SDS011;16405;53.964;13.448;2022-11-28T01:49:10;88.15;;;34.92;;
29432;SDS011;16405;53.964;13.448;2022-11-28T01:51:48;99.80;;;36.08;;
29432;SDS011;16405;53.964;13.448;2022-11-28T01:54:21;92.35;;;36.65;;
29432;SDS011;16405;53.964;13.448;2022-11-28T01:56:51;65.13;;;24.38;;
29432;SDS011;16405;53.964;13.448;2022-11-28T01:59:27;93.32;;;37.60;;
29432;SDS011;16405;53.964;13.448;2022-11-28T02:02:01;88.97;;;35.47;;
29432;SDS011;16405;53.964;13.448;2022-11-28T02:04:33;76.40;;;28.13;;
29432;SDS011;16405;53.964;13.448;2022-11-28T02:07:05;73.82;;;30.88;;
29432;SDS011;16405;53.964;13.448;2022-11-28T02:09:31;79.82;;;35.55;;
29432;SDS011;16405;53.964;13.448;2022-11-28T02:17:26;84.13;;;34.65;;
29432;SDS011;16405;53.964;13.448;2022-11-28T02:23:23;81.63;;;34.22;;
29432;SDS011;16405;53.964;13.448;2022-11-28T02:26:38;81.28;;;33.20;;
29432;SDS011;16405;53.964;13.448;2022-11-28T02:29:45;75.95;;;34.47;;
29432;SDS011;16405;53.964;13.448;2022-11-28T02:35:40;70.47;;;33.22;;
29432;SDS011;16405;53.964;13.448;2022-11-28T02:41:45;77.05;;;33.90;;
29432;SDS011;16405;53.964;13.448;2022-11-28T02:44:39;75.50;;;33.45;;
29432;SDS011;16405;53.964;13.448;2022-11-28T02:47:17;78.32;;;34.35;;
29432;SDS011;16405;53.964;13.448;2022-11-28T02:49:55;74.80;;;34.00;;
29432;SDS011;16405;53.964;13.448;2022-11-28T02:52:34;82.40;;;35.38;;
29432;SDS011;16405;53.964;13.448;2022-11-28T02:55:24;88.40;;;35.55;;
29432;SDS011;16405;53.964;13.448;2022-11-28T02:57:52;54.47;;;24.52;;
29432;SDS011;16405;53.964;13.448;2022-11-28T03:00:29;84.25;;;35.53;;
29432;SDS011;16405;53.964;13.448;2022-11-28T03:15:01;77.72;;;33.22;;
29432;SDS011;16405;53.964;13.448;2022-11-28T03:17:34;95.55;;;40.45;;
29432;SDS011;16405;53.964;13.448;2022-11-28T03:23:26;90.75;;;39.40;;
29432;SDS011;16405;53.964;13.448;2022-11-28T03:29:15;96.03;;;39.70;;
29432;SDS011;16405;53.964;13.448;2022-11-28T03:32:29;81.72;;;38.45;;
29432;SDS011;16405;53.964;13.448;2022-11-28T03:35:13;84.78;;;38.58;;
29432;SDS011;16405;53.964;13.448;2022-11-28T03:37:46;78.57;;;37.58;;
29432;SDS011;16405;53.964;13.448;2022-11-28T03:40:21;82.30;;;37.95;;
29432;SDS011;16405;53.964;13.448;2022-11-28T03:43:14;69.25;;;34.10;;
29432;SDS011;16405;53.964;13.448;2022-11-28T03:45:54;72.15;;;32.63;;
29432;SDS011;16405;53.964;13.448;2022-11-28T03:48:28;61.25;;;33.47;;
29432;SDS011;16405;53.964;13.448;2022-11-28T03:51:15;69.78;;;32.90;;
29432;SDS011;16405;53.964;13.448;2022-11-28T03:57:09;54.38;;;29.67;;
29432;SDS011;16405;53.964;13.448;2022-11-28T04:00:28;57.10;;;28.23;;
29432;SDS011;16405;53.964;13.448;2022-11-28T04:06:07;56.42;;;27.80;;
29432;SDS011;16405;53.964;13.448;2022-11-28T04:19:12;53.35;;;27.27;;
29432;SDS011;16405;53.964;13.448;2022-11-28T04:22:23;49.45;;;24.55;;
29432;SDS011;16405;53.964;13.448;2022-11-28T04:25:52;55.55;;;26.85;;
29432;SDS011;16405;53.964;13.448;2022-11-28T04:28:47;47.60;;;22.42;;
29432;SDS011;16405;53.964;13.448;2022-11-28T04:31:22;47.80;;;24.15;;
29432;SDS011;16405;53.964;13.448;2022-11-28T04:33:50;35.08;;;16.17;;
29432;SDS011;16405;53.964;13.448;2022-11-28T04:36:30;52.60;;;24.77;;
29432;SDS011;16405;53.964;13.448;2022-11-28T04:39:40;44.33;;;21.42;;
29432;SDS011;16405;53.964;13.448;2022-11-28T04:42:47;45.83;;;22.02;;
29432;SDS011;16405;53.964;13.448;2022-11-28T05:00:32;54.75;;;26.45;;
29432;SDS011;16405;53.964;13.448;2022-11-28T05:03:12;50.20;;;24.67;;
29432;SDS011;16405;53.964;13.448;2022-11-28T05:06:32;47.95;;;21.63;;
29432;SDS011;16405;53.964;13.448;2022-11-28T05:09:21;51.50;;;25.50;;
29432;SDS011;16405;53.964;13.448;2022-11-28T05:14:51;52.10;;;25.52;;
29432;SDS011;16405;53.964;13.448;2022-11-28T05:17:29;37.13;;;20.67;;
29432;SDS011;16405;53.964;13.448;2022-11-28T05:20:16;48.47;;;24.75;;
29432;SDS011;16405;53.964;13.448;2022-11-28T05:22:56;37.75;;;17.65;;
29432;SDS011;16405;53.964;13.448;2022-11-28T05:25:52;45.67;;;22.52;;
29432;SDS011;16405;53.964;13.448;2022-11-28T05:28:30;40.35;;;18.38;;
29432;SDS011;16405;53.964;13.448;2022-11-28T05:31:24;50.50;;;24.17;;
29432;SDS011;16405;53.964;13.448;2022-11-28T05:34:09;47.15;;;23.58;;
29432;SDS011;16405;53.964;13.448;2022-11-28T05:39:41;41.40;;;18.88;;
29432;SDS011;16405;53.964;13.448;2022-11-28T05:42:50;51.33;;;25.02;;
29432;SDS011;16405;53.964;13.448;2022-11-28T05:45:09;54.85;;;25.55;;
29432;SDS011;16405;53.964;13.448;2022-11-28T05:47:38;46.65;;;21.77;;
29432;SDS011;16405;53.964;13.448;2022-11-28T05:50:03;55.53;;;24.92;;
29432;SDS011;16405;53.964;13.448;2022-11-28T05:52:30;53.65;;;26.25;;
29432;SDS011;16405;53.964;13.448;2022-11-28T05:55:08;46.83;;;21.60;;
29432;SDS011;16405;53.964;13.448;2022-11-28T05:57:34;59.40;;;26.67;;
29432;SDS011;16405;53.964;13.448;2022-11-28T06:00:10;54.75;;;25.75;;
29432;SDS011;16405;53.964;13.448;2022-11-28T06:02:38;70.70;;;30.10;;
29432;SDS011;16405;53.964;13.448;2022-11-28T06:05:04;87.57;;;38.00;;
29432;SDS011;16405;53.964;13.448;2022-11-28T06:07:36;77.68;;;35.72;;
29432;SDS011;16405;53.964;13.448;2022-11-28T06:10:10;50.53;;;21.58;;
29432;SDS011;16405;53.964;13.448;2022-11-28T06:13:15;78.28;;;34.05;;
29432;SDS011;16405;53.964;13.448;2022-11-28T06:15:54;88.30;;;40.92;;
29432;SDS011;16405;53.964;13.448;2022-11-28T06:18:20;81.55;;;36.75;;
29432;SDS011;16405;53.964;13.448;2022-11-28T06:20:45;85.22;;;35.10;;
29432;SDS011;16405;53.964;13.448;2022-11-28T06:24:28;80.65;;;37.63;;
29432;SDS011;16405;53.964;13.448;2022-11-28T06:26:54;93.30;;;38.95;;
29432;SDS011;16405;53.964;13.448;2022-11-28T06:29:33;75.18;;;33.72;;
29432;SDS011;16405;53.964;13.448;2022-11-28T06:31:59;64.63;;;30.00;;
29432;SDS011;16405;53.964;13.448;2022-11-28T06:37:20;64.72;;;29.38;;
29432;SDS011;16405;53.964;13.448;2022-11-28T06:39:53;60.63;;;28.50;;
29432;SDS011;16405;53.964;13.448;2022-11-28T06:42:34;45.38;;;18.58;;
29432;SDS011;16405;53.964;13.448;2022-11-28T06:45:04;50.40;;;25.08;;
29432;SDS011;16405;53.964;13.448;2022-11-28T06:50:06;49.77;;;23.67;;
29432;SDS011;16405;53.964;13.448;2022-11-28T06:53:31;57.70;;;25.55;;
29432;SDS011;16405;53.964;13.448;2022-11-28T06:56:43;56.50;;;25.67;;
29432;SDS011;16405;53.964;13.448;2022-11-28T07:02:32;58.22;;;26.15;;
29432;SDS011;16405;53.964;13.448;2022-11-28T07:05:20;53.67;;;24.33;;
29432;SDS011;16405;53.964;13.448;2022-11-28T07:08:07;66.32;;;26.65;;
29432;SDS011;16405;53.964;13.448;2022-11-28T07:10:38;60.10;;;26.40;;
29432;SDS011;16405;53.964;13.448;2022-11-28T07:13:13;55.15;;;24.60;;
29432;SDS011;16405;53.964;13.448;2022-11-28T07:15:46;65.32;;;27.58;;
29432;SDS011;16405;53.964;13.448;2022-11-28T07:18:53;64.10;;;27.60;;
29432;SDS011;16405;53.964;13.448;2022-11-28T07:24:12;54.90;;;22.83;;
29432;SDS011;16405;53.964;13.448;2022-11-28T07:27:21;64.53;;;29.17;;
29432;SDS011;16405;53.964;13.448;2022-11-28T07:29:36;72.57;;;28.85;;
29432;SDS011;16405;53.964;13.448;2022-11-28T07:37:53;67.03;;;28.50;;
29432;SDS011;16405;53.964;13.448;2022-11-28T07:40:48;69.80;;;30.63;;
29432;SDS011;16405;53.964;13.448;2022-11-28T07:43:23;72.97;;;31.02;;
29432;SDS011;16405;53.964;13.448;2022-11-28T07:45:51;65.22;;;26.70;;
29432;SDS011;16405;53.964;13.448;2022-11-28T07:48:27;74.68;;;30.27;;
29432;SDS011;16405;53.964;13.448;2022-11-28T07:50:55;65.72;;;29.35;;
29432;SDS011;16405;53.964;13.448;2022-11-28T07:53:34;53.85;;;24.63;;
29432;SDS011;16405;53.964;13.448;2022-11-28T07:56:12;58.45;;;22.02;;
29432;SDS011;16405;53.964;13.448;2022-11-28T07:59:11;70.90;;;28.80;;
29432;SDS011;16405;53.964;13.448;2022-11-28T08:01:45;68.78;;;30.73;;
29432;SDS011;16405;53.964;13.448;2022-11-28T08:04:18;67.95;;;30.35;;
29432;SDS011;16405;53.964;13.448;2022-11-28T08:06:56;58.83;;;21.83;;
29432;SDS011;16405;53.964;13.448;2022-11-28T08:12:29;65.88;;;30.42;;
29432;SDS011;16405;53.964;13.448;2022-11-28T08:14:55;73.07;;;30.33;;
29432;SDS011;16405;53.964;13.448;2022-11-28T08:17:49;75.68;;;32.13;;
29432;SDS011;16405;53.964;13.448;2022-11-28T08:20:15;70.28;;;31.90;;
29432;SDS011;16405;53.964;13.448;2022-11-28T08:26:22;72.00;;;32.47;;
29432;SDS011;16405;53.964;13.448;2022-11-28T08:28:50;74.90;;;33.43;;
29432;SDS011;16405;53.964;13.448;2022-11-28T08:32:13;80.30;;;33.85;;
29432;SDS011;16405;53.964;13.448;2022-11-28T08:34:40;72.47;;;31.55;;
29432;SDS011;16405;53.964;13.448;2022-11-28T08:37:15;72.50;;;31.55;;
29432;SDS011;16405;53.964;13.448;2022-11-28T08:40:02;72.10;;;31.40;;
29432;SDS011;16405;53.964;13.448;2022-11-28T08:42:40;69.43;;;33.08;;
29432;SDS011;16405;53.964;13.448;2022-11-28T08:45:10;81.38;;;33.25;;
29432;SDS011;16405;53.964;13.448;2022-11-28T08:51:32;54.17;;;23.35;;
29432;SDS011;16405;53.964;13.448;2022-11-28T08:56:52;68.20;;;31.75;;
29432;SDS011;16405;53.964;13.448;2022-11-28T08:59:32;53.30;;;22.88;;
29432;SDS011;16405;53.964;13.448;2022-11-28T09:02:10;71.50;;;30.08;;
29432;SDS011;16405;53.964;13.448;2022-11-28T09:07:30;60.50;;;27.42;;
29432;SDS011;16405;53.964;13.448;2022-11-28T09:10:43;72.93;;;36.17;;
29432;SDS011;16405;53.964;13.448;2022-11-28T09:16:30;62.83;;;28.63;;
29432;SDS011;16405;53.964;13.448;2022-11-28T09:19:00;66.03;;;30.25;;
29432;SDS011;16405;53.964;13.448;2022-11-28T09:21:38;67.90;;;33.70;;
29432;SDS011;16405;53.964;13.448;2022-11-28T09:24:06;64.65;;;31.02;;
29432;SDS011;16405;53.964;13.448;2022-11-28T09:27:10;73.60;;;32.83;;
29432;SDS011;16405;53.964;13.448;2022-11-28T09:30:11;79.75;;;36.20;;
29432;SDS011;16405;53.964;13.448;2022-11-28T09:33:21;63.55;;;28.95;;
29432;SDS011;16405;53.964;13.448;2022-11-28T09:39:25;69.85;;;33.15;;
29432;SDS011;16405;53.964;13.448;2022-11-28T09:45:23;61.20;;;28.88;;
29432;SDS011;16405;53.964;13.448;2022-11-28T09:47:50;72.82;;;33.63;;
29432;SDS011;16405;53.964;13.448;2022-11-28T09:50:44;75.15;;;32.45;;
29432;SDS011;16405;53.964;13.448;2022-11-28T09:56:47;69.07;;;33.20;;
29432;SDS011;16405;53.964;13.448;2022-11-28T09:59:29;67.75;;;31.88;;
29432;SDS011;16405;53.964;13.448;2022-11-28T10:05:45;62.35;;;30.67;;
29432;SDS011;16405;53.964;13.448;2022-11-28T10:20:33;59.88;;;29.90;;
29432;SDS011;16405;53.964;13.448;2022-11-28T10:26:06;64.75;;;29.63;;
29432;SDS011;16405;53.964;13.448;2022-11-28T10:28:47;62.13;;;30.52;;
29432;SDS011;16405;53.964;13.448;2022-11-28T10:31:43;60.85;;;31.90;;
29432;SDS011;16405;53.964;13.448;2022-11-28T10:37:37;54.70;;;27.45;;
29432;SDS011;16405;53.964;13.448;2022-11-28T10:43:28;49.47;;;24.88;;
29432;SDS011;16405;53.964;13.448;2022-11-28T10:47:00;50.30;;;27.60;;
29432;SDS011;16405;53.964;13.448;2022-11-28T10:50:39;49.45;;;20.88;;
29432;SDS011;16405;53.964;13.448;2022-11-28T10:54:32;43.78;;;22.90;;
29432;SDS011;16405;53.964;13.448;2022-11-28T10:57:23;46.22;;;22.40;;
29432;SDS011;16405;53.964;13.448;2022-11-28T11:00:28;34.85;;;18.13;;
29432;SDS011;16405;53.964;13.448;2022-11-28T11:02:59;44.83;;;21.58;;
29432;SDS011;16405;53.964;13.448;2022-11-28T11:05:34;42.22;;;21.42;;
29432;SDS011;16405;53.964;13.448;2022-11-28T11:14:55;27.05;;;15.25;;
29432;SDS011;16405;53.964;13.448;2022-11-28T11:17:41;38.80;;;21.10;;
29432;SDS011;16405;53.964;13.448;2022-11-28T11:24:31;43.90;;;21.52;;
29432;SDS011;16405;53.964;13.448;2022-11-28T11:27:16;42.33;;;19.20;;
29432;SDS011;16405;53.964;13.448;2022-11-28T11:33:30;36.10;;;18.90;;
29432;SDS011;16405;53.964;13.448;2022-11-28T11:36:35;36.28;;;18.42;;
29432;SDS011;16405;53.964;13.448;2022-11-28T11:44:36;37.67;;;19.00;;
29432;SDS011;16405;53.964;13.448;2022-11-28T11:47:12;32.78;;;17.70;;
29432;SDS011;16405;53.964;13.448;2022-11-28T11:49:41;38.50;;;19.63;;
29432;SDS011;16405;53.964;13.448;2022-11-28T11:55:31;36.42;;;18.90;;
29432;SDS011;16405;53.964;13.448;2022-11-28T11:58:10;37.47;;;20.02;;
29432;SDS011;16405;53.964;13.448;2022-11-28T12:00:44;40.30;;;21.17;;
29432;SDS011;16405;53.964;13.448;2022-11-28T12:06:05;38.03;;;20.15;;
29432;SDS011;16405;53.964;13.448;2022-11-28T12:11:43;31.25;;;17.63;;
29432;SDS011;16405;53.964;13.448;2022-11-28T12:25:43;35.45;;;19.88;;
29432;SDS011;16405;53.964;13.448;2022-11-28T12:40:23;33.10;;;18.17;;
29432;SDS011;16405;53.964;13.448;2022-11-28T12:43:11;34.00;;;18.10;;
29432;SDS011;16405;53.964;13.448;2022-11-28T12:52:34;34.00;;;17.55;;
29432;SDS011;16405;53.964;13.448;2022-11-28T12:55:43;36.15;;;16.88;;
29432;SDS011;16405;53.964;13.448;2022-11-28T12:58:42;31.00;;;16.98;;
29432;SDS011;16405;53.964;13.448;2022-11-28T13:13:44;30.63;;;15.15;;
29432;SDS011;16405;53.964;13.448;2022-11-28T13:19:16;26.10;;;14.25;;
29432;SDS011;16405;53.964;13.448;2022-11-28T13:22:24;29.65;;;17.15;;
29432;SDS011;16405;53.964;13.448;2022-11-28T13:31:34;36.15;;;17.77;;
29432;SDS011;16405;53.964;13.448;2022-11-28T13:34:22;34.78;;;18.35;;
29432;SDS011;16405;53.964;13.448;2022-11-28T13:36:56;31.05;;;15.00;;
29432;SDS011;16405;53.964;13.448;2022-11-28T13:39:56;32.60;;;16.55;;
29432;SDS011;16405;53.964;13.448;2022-11-28T13:42:46;35.33;;;17.63;;
29432;SDS011;16405;53.964;13.448;2022-11-28T13:45:41;33.30;;;17.65;;
29432;SDS011;16405;53.964;13.448;2022-11-28T13:53:42;38.30;;;16.10;;
29432;SDS011;16405;53.964;13.448;2022-11-28T14:00:32;26.13;;;14.57;;
29432;SDS011;16405;53.964;13.448;2022-11-28T14:03:01;27.95;;;13.75;;
29432;SDS011;16405;53.964;13.448;2022-11-28T14:05:39;29.80;;;13.93;;
29432;SDS011;16405;53.964;13.448;2022-11-28T14:08:05;24.33;;;12.98;;
29432;SDS011;16405;53.964;13.448;2022-11-28T14:21:09;27.20;;;14.40;;
29432;SDS011;16405;53.964;13.448;2022-11-28T14:27:32;23.33;;;13.65;;
29432;SDS011;16405;53.964;13.448;2022-11-28T14:30:42;22.23;;;12.40;;
29432;SDS011;16405;53.964;13.448;2022-11-28T14:33:40;23.80;;;13.15;;
29432;SDS011;16405;53.964;13.448;2022-11-28T14:36:33;28.02;;;12.88;;
29432;SDS011;16405;53.964;13.448;2022-11-28T14:39:32;21.60;;;13.18;;
29432;SDS011;16405;53.964;13.448;2022-11-28T14:48:34;24.33;;;12.68;;
29432;SDS011;16405;53.964;13.448;2022-11-28T14:55:15;24.70;;;12.15;;
29432;SDS011;16405;53.964;13.448;2022-11-28T14:58:12;23.27;;;12.00;;
29432;SDS011;16405;53.964;13.448;2022-11-28T15:17:22;14.02;;;6.20;;
29432;SDS011;16405;53.964;13.448;2022-11-28T15:23:33;20.33;;;9.82;;
29432;SDS011;16405;53.964;13.448;2022-11-28T15:33:22;22.45;;;10.90;;
29432;SDS011;16405;53.964;13.448;2022-11-28T15:36:31;23.70;;;12.40;;
29432;SDS011;16405;53.964;13.448;2022-11-28T15:39:25;22.60;;;12.52;;
29432;SDS011;16405;53.964;13.448;2022-11-28T15:49:23;26.25;;;13.32;;
29432;SDS011;16405;53.964;13.448;2022-11-28T15:55:15;23.60;;;12.75;;
29432;SDS011;16405;53.964;13.448;2022-11-28T16:01:26;30.92;;;15.60;;
29432;SDS011;16405;53.964;13.448;2022-11-28T16:07:02;30.60;;;15.70;;
29432;SDS011;16405;53.964;13.448;2022-11-28T16:13:25;23.05;;;11.38;;
29432;SDS011;16405;53.964;13.448;2022-11-28T16:16:36;30.58;;;16.73;;
29432;SDS011;16405;53.964;13.448;2022-11-28T16:19:43;31.98;;;17.25;;
29432;SDS011;16405;53.964;13.448;2022-11-28T16:25:58;26.33;;;11.98;;
29432;SDS011;16405;53.964;13.448;2022-11-28T16:42:14;39.75;;;20.25;;
29432;SDS011;16405;53.964;13.448;2022-11-28T16:44:51;40.08;;;21.08;;
29432;SDS011;16405;53.964;13.448;2022-11-28T16:47:43;32.08;;;16.50;;
29432;SDS011;16405;53.964;13.448;2022-11-28T16:50:24;41.30;;;19.60;;
29432;SDS011;16405;53.964;13.448;2022-11-28T16:53:04;38.30;;;17.77;;
29432;SDS011;16405;53.964;13.448;2022-11-28T16:59:17;44.72;;;21.35;;
29432;SDS011;16405;53.964;13.448;2022-11-28T17:02:29;40.08;;;21.15;;
29432;SDS011;16405;53.964;13.448;2022-11-28T17:15:30;44.95;;;23.40;;
29432;SDS011;16405;53.964;13.448;2022-11-28T17:17:57;48.08;;;23.75;;
29432;SDS011;16405;53.964;13.448;2022-11-28T17:20:34;52.13;;;26.08;;
29432;SDS011;16405;53.964;13.448;2022-11-28T17:23:13;41.45;;;21.40;;
29432;SDS011;16405;53.964;13.448;2022-11-28T17:25:52;38.67;;;18.77;;
29432;SDS011;16405;53.964;13.448;2022-11-28T17:32:14;36.25;;;18.42;;
29432;SDS011;16405;53.964;13.448;2022-11-28T17:34:44;33.00;;;16.00;;
29432;SDS011;16405;53.964;13.448;2022-11-28T17:46:07;37.97;;;15.60;;
29432;SDS011;16405;53.964;13.448;2022-11-28T17:48:33;46.50;;;22.25;;
29432;SDS011;16405;53.964;13.448;2022-11-28T17:50:59;42.83;;;19.75;;
29432;SDS011;16405;53.964;13.448;2022-11-28T17:53:39;53.90;;;25.55;;
29432;SDS011;16405;53.964;13.448;2022-11-28T17:56:07;49.95;;;25.17;;
29432;SDS011;16405;53.964;13.448;2022-11-28T17:58:37;46.05;;;22.17;;
29432;SDS011;16405;53.964;13.448;2022-11-28T18:01:09;48.60;;;23.55;;
29432;SDS011;16405;53.964;13.448;2022-11-28T18:03:42;40.05;;;20.15;;
29432;SDS011;16405;53.964;13.448;2022-11-28T18:06:17;44.88;;;22.33;;
29432;SDS011;16405;53.964;13.448;2022-11-28T18:08:47;40.55;;;19.83;;
29432;SDS011;16405;53.964;13.448;2022-11-28T18:11:14;49.35;;;24.83;;
29432;SDS011;16405;53.964;13.448;2022-11-28T18:13:42;49.65;;;23.35;;
29432;SDS011;16405;53.964;13.448;2022-11-28T18:16:18;33.38;;;17.10;;
29432;SDS011;16405;53.964;13.448;2022-11-28T18:18:54;51.97;;;24.98;;
29432;SDS011;16405;53.964;13.448;2022-11-28T18:21:20;48.55;;;23.13;;
29432;SDS011;16405;53.964;13.448;2022-11-28T18:23:47;53.63;;;26.10;;
29432;SDS011;16405;53.964;13.448;2022-11-28T18:26:15;50.45;;;24.88;;
29432;SDS011;16405;53.964;13.448;2022-11-28T18:28:47;46.88;;;20.70;;
29432;SDS011;16405;53.964;13.448;2022-11-28T18:31:21;49.03;;;25.55;;
29432;SDS011;16405;53.964;13.448;2022-11-28T18:34:01;54.87;;;25.23;;
29432;SDS011;16405;53.964;13.448;2022-11-28T18:36:31;58.63;;;27.10;;
29432;SDS011;16405;53.964;13.448;2022-11-28T18:39:04;52.42;;;25.48;;
29432;SDS011;16405;53.964;13.448;2022-11-28T18:41:41;53.55;;;26.75;;
29432;SDS011;16405;53.964;13.448;2022-11-28T18:44:12;53.28;;;24.85;;
29432;SDS011;16405;53.964;13.448;2022-11-28T18:46:39;54.63;;;26.08;;
29432;SDS011;16405;53.964;13.448;2022-11-28T18:49:09;56.45;;;27.35;;
29432;SDS011;16405;53.964;13.448;2022-11-28T18:51:44;60.03;;;28.17;;
29432;SDS011;16405;53.964;13.448;2022-11-28T18:54:10;51.92;;;24.63;;
29432;SDS011;16405;53.964;13.448;2022-11-28T18:56:36;55.85;;;27.50;;
29432;SDS011;16405;53.964;13.448;2022-11-28T18:59:02;54.28;;;27.25;;
29432;SDS011;16405;53.964;13.448;2022-11-28T19:01:34;53.65;;;27.73;;
29432;SDS011;16405;53.964;13.448;2022-11-28T19:04:02;53.97;;;24.30;;
29432;SDS011;16405;53.964;13.448;2022-11-28T19:06:42;62.75;;;28.20;;
29432;SDS011;16405;53.964;13.448;2022-11-28T19:09:10;59.28;;;29.58;;
29432;SDS011;16405;53.964;13.448;2022-11-28T19:11:42;59.47;;;28.35;;
29432;SDS011;16405;53.964;13.448;2022-11-28T19:14:20;59.75;;;29.90;;
29432;SDS011;16405;53.964;13.448;2022-11-28T19:16:46;61.20;;;29.43;;
29432;SDS011;16405;53.964;13.448;2022-11-28T19:19:13;49.63;;;23.77;;
29432;SDS011;16405;53.964;13.448;2022-11-28T19:21:40;53.80;;;24.73;;
29432;SDS011;16405;53.964;13.448;2022-11-28T19:24:15;61.42;;;30.00;;
29432;SDS011;16405;53.964;13.448;2022-11-28T19:27:30;67.40;;;30.55;;
29432;SDS011;16405;53.964;13.448;2022-11-28T19:29:56;60.55;;;27.92;;
29432;SDS011;16405;53.964;13.448;2022-11-28T19:32:31;66.25;;;29.65;;
29432;SDS011;16405;53.964;13.448;2022-11-28T19:35:00;51.88;;;24.30;;
29432;SDS011;16405;53.964;13.448;2022-11-28T19:37:34;53.45;;;23.83;;
29432;SDS011;16405;53.964;13.448;2022-11-28T19:42:39;60.70;;;30.88;;
29432;SDS011;16405;53.964;13.448;2022-11-28T19:45:06;57.97;;;28.95;;
29432;SDS011;16405;53.964;13.448;2022-11-28T19:48:02;66.40;;;32.47;;
29432;SDS011;16405;53.964;13.448;2022-11-28T19:50:40;73.70;;;32.72;;
29432;SDS011;16405;53.964;13.448;2022-11-28T19:53:18;66.40;;;31.40;;
29432;SDS011;16405;53.964;13.448;2022-11-28T19:58:45;53.13;;;26.58;;
29432;SDS011;16405;53.964;13.448;2022-11-28T20:01:39;66.45;;;31.70;;
29432;SDS011;16405;53.964;13.448;2022-11-28T20:04:16;61.47;;;31.77;;
29432;SDS011;16405;53.964;13.448;2022-11-28T20:06:47;67.60;;;31.50;;
29432;SDS011;16405;53.964;13.448;2022-11-28T20:09:21;65.97;;;29.88;;
29432;SDS011;16405;53.964;13.448;2022-11-28T20:11:47;64.80;;;30.63;;
29432;SDS011;16405;53.964;13.448;2022-11-28T20:14:18;59.58;;;27.77;;
29432;SDS011;16405;53.964;13.448;2022-11-28T20:16:47;53.63;;;26.15;;
29432;SDS011;16405;53.964;13.448;2022-11-28T20:19:13;60.03;;;30.38;;
29432;SDS011;16405;53.964;13.448;2022-11-28T20:21:40;57.78;;;29.35;;
29432;SDS011;16405;53.964;13.448;2022-11-28T20:24:06;61.05;;;30.98;;
29432;SDS011;16405;53.964;13.448;2022-11-28T20:26:43;52.70;;;24.35;;
29432;SDS011;16405;53.964;13.448;2022-11-28T20:29:11;65.50;;;30.15;;
29432;SDS011;16405;53.964;13.448;2022-11-28T20:31:43;73.70;;;34.85;;
29432;SDS011;16405;53.964;13.448;2022-11-28T20:34:17;67.10;;;33.85;;
29432;SDS011;16405;53.964;13.448;2022-11-28T20:36:52;67.55;;;32.33;;
29432;SDS011;16405;53.964;13.448;2022-11-28T20:39:18;68.75;;;32.60;;
29432;SDS011;16405;53.964;13.448;2022-11-28T20:41:51;64.55;;;30.90;;
29432;SDS011;16405;53.964;13.448;2022-11-28T20:44:17;61.88;;;30.00;;
29432;SDS011;16405;53.964;13.448;2022-11-28T20:46:47;55.20;;;25.80;;
29432;SDS011;16405;53.964;13.448;2022-11-28T20:49:18;61.85;;;31.65;;
29432;SDS011;16405;53.964;13.448;2022-11-28T20:51:49;53.05;;;27.85;;
29432;SDS011;16405;53.964;13.448;2022-11-28T20:54:24;64.65;;;29.77;;
29432;SDS011;16405;53.964;13.448;2022-11-28T20:56:56;62.30;;;28.55;;
29432;SDS011;16405;53.964;13.448;2022-11-28T20:59:31;57.05;;;28.70;;
29432;SDS011;16405;53.964;13.448;2022-11-28T21:01:56;64.20;;;29.73;;
29432;SDS011;16405;53.964;13.448;2022-11-28T21:04:50;70.68;;;33.33;;
29432;SDS011;16405;53.964;13.448;2022-11-28T21:07:24;73.43;;;32.67;;
29432;SDS011;16405;53.964;13.448;2022-11-28T21:09:54;62.65;;;30.13;;
29432;SDS011;16405;53.964;13.448;2022-11-28T21:12:30;58.45;;;29.90;;